Onde está Casal Novo, Lisboa en Portugal?

 

Casal Novo está situado na região Lisboa em Portugal!

Buscar o nome de uma cidade:

Casa "degli Esercizi", Casa San Mazzeo, Casas de San Isidro, Casas de Cabililla, Casanova Sur

Aqui você vai encontrar a localização de Casal Novo em um mapa.
Para ver como ele atualmente parece, abaixo estão algumas fotos da região, com webcams online.
Você também pode encontrar a distância para as principais cidades da região e de cidades do resto do Portugal.

5 lugares nomeadas Casal Novo na Portugal.

Cidades do mundo
Cidades em Portugal que também são encontradas em outros países do mundo.


Onde está Casal Novo no mapa?




Webcams perto Casal Novo

Benavente › South: Garrocheira - Airport.


Benavente › South: Garrocheira - Airport - Dia
Actual
Benavente › South: Garrocheira - Airport - Actual

Benavente › North-East: Santarém - AIrport, METAR: BENAV 180005Z 36004KT 17/14 Q1015.


Benavente › North-East: Santarém - AIrport, METAR: BENAV 180005Z 36004KT 17/14 Q1015 - Dia
Actual
Benavente › North-East: Santarém - AIrport, METAR: BENAV 180005Z 36004KT 17/14 Q1015 - Actual

Silveira › West.


Silveira › West - Dia
Actual
Silveira › West - Actual

Webcams provided by webcams.travel


Distâncias

Onde está Casal Novo em relação a outros lugares?

Top 10 cidades em Lisboa e distância de Casal Novo.

Cidade#Populaçãokmmilhas
Lisbon15177984327
Amadora21788564226
Queluz31033984327
Loures4662303220
Rio de Mouro5546954327
Odivelas6546233723
São Domingos de Rana7467175132
Cascais8364365635
Alcabideche9333155132
Póvoa de Santa Iria10289002717

Top 10 cidades em Portugal e distância de Casal Novo.

Cidade # Populaçãokmmilhas
Lisbon15177984327
Porto2249630230143
Amadora31788564226
Braga4121393277172
Setúbal51171096440
Coimbra610658013483
Queluz71033984327
Funchal8980411009627
Vila Nova de Gaia970810229142
Loures10662303220



Info

Estatística e Geografia

Portugal é composta de 15299 cidades em 20 regiões.

A região de Lisboa tem 1032 cidades.

Casal Novo é o número 381 na região Lisboa.

A cidade é o número 3839 na Portugal.

Onde está Casal Novo, Lisboa en Portugal?